Time;durP1;ratioP1;P1;durP2;ratioP2;P2;SDS_P1;SDS_P2;PMS_P1;PMS_P2;Temp;Humidity;BMP_temperature;BMP_pressure;BME280_temperature;BME280_humidity;BME280_pressure;Samples;Min_cycle;Max_cycle;Signal;HPM_P1;HPM_P2
2022/05/02 00:02:22;;;;;;;17.33;15.10;;;16.40;62.20;;;;;;5135994;27;20027;-53
2022/05/02 00:04:48;;;;;;;17.80;15.93;;;16.30;62.30;;;;;;5117092;27;20023;-56
2022/05/02 00:07:13;;;;;;;18.15;16.33;;;16.30;62.60;;;;;;5117100;27;20374;-53
2022/05/02 00:09:39;;;;;;;19.05;16.98;;;16.20;62.80;;;;;;5135460;27;20031;-56
2022/05/02 00:12:05;;;;;;;18.88;16.90;;;16.20;63.20;;;;;;5134947;27;20011;-51
2022/05/02 00:14:31;;;;;;;18.90;16.90;;;16.10;63.50;;;;;;5117304;27;20099;-53
2022/05/02 00:16:57;;;;;;;18.73;16.73;;;16.10;63.60;;;;;;5134397;27;20023;-53
2022/05/02 00:19:23;;;;;;;19.33;16.40;;;16.10;63.80;;;;;;5135708;27;20030;-52
2022/05/02 00:21:49;;;;;;;18.52;16.63;;;16.10;64.00;;;;;;5134720;27;20027;-53
2022/05/02 00:24:14;;;;;;;18.52;16.65;;;16.10;64.20;;;;;;5116884;27;20019;-54
2022/05/02 00:26:41;;;;;;;17.90;16.10;;;15.90;64.50;;;;;;5135506;27;20011;-53
2022/05/02 00:29:07;;;;;;;18.55;16.75;;;15.90;64.80;;;;;;5134466;27;20037;-56
2022/05/02 00:31:51;;;;;;;19.25;17.20;;;15.90;65.00;;;;;;5116873;27;20024;-54
2022/05/02 00:34:17;;;;;;;18.08;16.27;;;15.80;65.30;;;;;;5135163;27;20023;-53
2022/05/02 00:36:43;;;;;;;18.55;16.63;;;15.80;65.10;;;;;;5135108;27;20035;-50
2022/05/02 00:39:09;;;;;;;20.02;16.67;;;15.80;65.00;;;;;;5133735;27;20500;-56
2022/05/02 00:41:36;;;;;;;21.00;16.98;;;15.80;65.00;;;;;;5116837;27;20564;-52
2022/05/02 00:44:02;;;;;;;18.83;16.95;;;15.80;65.10;;;;;;5116119;27;20075;-56
2022/05/02 00:46:28;;;;;;;20.58;17.48;;;15.70;65.00;;;;;;5116305;27;20023;-51
2022/05/02 00:48:54;;;;;;;18.65;16.75;;;15.70;65.20;;;;;;5134179;27;20023;-51
2022/05/02 00:51:21;;;;;;;17.15;15.40;;;15.70;65.30;;;;;;5134804;27;20046;-53
2022/05/02 00:53:51;;;;;;;16.77;15.05;;;15.60;65.10;;;;;;5134707;27;20057;-55
2022/05/02 00:56:18;;;;;;;19.27;16.10;;;15.70;65.00;;;;;;5134545;27;20480;-55
2022/05/02 00:58:44;;;;;;;16.85;15.15;;;15.70;65.00;;;;;;5115014;27;20019;-55
2022/05/02 01:01:10;;;;;;;16.60;14.90;;;15.70;64.90;;;;;;5133111;27;20027;-55
2022/05/02 01:03:36;;;;;;;19.88;16.42;;;15.70;64.80;;;;;;5134868;27;20054;-53
2022/05/02 01:08:47;;;;;;;18.42;16.10;;;15.70;64.60;;;;;;5134347;27;20162;-56
2022/05/02 01:11:13;;;;;;;21.17;16.45;;;15.70;64.60;;;;;;5134102;27;20019;-53
2022/05/02 01:13:47;;;;;;;17.63;15.82;;;15.70;64.60;;;;;;5134584;27;20114;-49
2022/05/02 01:16:17;;;;;;;17.52;15.73;;;15.70;64.50;;;;;;5134657;27;20027;-50
2022/05/02 01:18:44;;;;;;;16.63;14.93;;;15.70;64.50;;;;;;5134626;27;20027;-53
2022/05/02 01:21:16;;;;;;;18.00;16.15;;;15.70;64.50;;;;;;5133648;27;20019;-56
2022/05/02 01:23:43;;;;;;;17.55;15.75;;;15.70;64.50;;;;;;5116164;27;20042;-48
2022/05/02 01:26:08;;;;;;;17.58;15.77;;;15.70;64.60;;;;;;5133941;27;20141;-51
2022/05/02 01:29:01;;;;;;;19.38;17.48;;;15.60;64.60;;;;;;5134186;27;20039;-55
2022/05/02 01:31:27;;;;;;;19.77;16.77;;;15.60;64.90;;;;;;5129664;27;20082;-55
2022/05/02 01:33:53;;;;;;;17.92;16.02;;;15.60;64.80;;;;;;5115211;27;20026;-53
2022/05/02 01:36:21;;;;;;;17.67;15.80;;;15.50;64.90;;;;;;5134299;27;20024;-55
2022/05/02 01:38:47;;;;;;;18.80;16.90;;;15.50;65.00;;;;;;5134100;27;20047;-57
2022/05/02 01:41:13;;;;;;;18.83;15.75;;;15.50;64.90;;;;;;5133680;27;20615;-56
2022/05/02 01:43:40;;;;;;;18.33;15.90;;;15.50;64.80;;;;;;5133791;27;20065;-55
2022/05/02 01:46:07;;;;;;;16.95;15.18;;;15.50;64.70;;;;;;5133441;27;20019;-54
2022/05/02 01:48:33;;;;;;;17.65;15.73;;;15.50;64.70;;;;;;5133392;27;20019;-55
2022/05/02 01:50:58;;;;;;;17.02;14.25;;;15.50;64.70;;;;;;5133277;27;20034;-53
2022/05/02 01:53:25;;;;;;;19.98;16.02;;;15.50;64.80;;;;;;5134049;27;20381;-53
2022/05/02 01:55:51;;;;;;;17.02;15.23;;;15.50;64.70;;;;;;5133521;27;20015;-59
2022/05/02 01:58:17;;;;;;;16.90;15.07;;;15.50;64.80;;;;;;5133296;27;20052;-52
2022/05/02 02:00:43;;;;;;;17.02;15.15;;;15.50;64.80;;;;;;5114963;27;20031;-56
2022/05/02 02:03:09;;;;;;;17.67;15.20;;;15.50;64.80;;;;;;5132996;27;20049;-59
2022/05/02 02:05:51;;;;;;;16.73;14.90;;;15.50;64.80;;;;;;5133670;27;20090;-55
2022/05/02 02:08:23;;;;;;;20.35;15.30;;;15.50;64.80;;;;;;5114898;27;20115;-56
2022/05/02 02:10:50;;;;;;;20.17;15.30;;;15.50;64.80;;;;;;5133425;27;20100;-60
2022/05/02 02:13:16;;;;;;;15.77;14.23;;;15.40;64.70;;;;;;5133268;27;20079;-52
2022/05/02 02:15:43;;;;;;;17.88;15.98;;;15.40;64.80;;;;;;5133650;27;20023;-55
2022/05/02 02:18:09;;;;;;;17.55;15.68;;;15.40;65.00;;;;;;5132063;27;20323;-57
2022/05/02 02:20:35;;;;;;;18.33;15.43;;;15.40;65.10;;;;;;5132953;27;20068;-56
2022/05/02 02:23:01;;;;;;;18.83;15.77;;;15.40;65.10;;;;;;5132580;27;20357;-54
2022/05/02 02:25:27;;;;;;;19.35;15.30;;;15.40;65.10;;;;;;5133401;27;20018;-57
2022/05/02 02:27:56;;;;;;;18.25;16.33;;;15.40;65.20;;;;;;5132377;27;20015;-59
2022/05/02 02:30:21;;;;;;;17.83;15.93;;;15.30;65.70;;;;;;5132811;27;20024;-57
2022/05/02 02:32:47;;;;;;;19.20;17.08;;;15.30;66.00;;;;;;5114467;27;20034;-56
2022/05/02 02:35:13;;;;;;;22.88;16.88;;;15.20;66.20;;;;;;5132328;27;20033;-51
2022/05/02 02:37:39;;;;;;;19.58;16.48;;;15.20;66.50;;;;;;5132654;27;20110;-52
2022/05/02 02:40:09;;;;;;;21.20;17.48;;;15.20;66.60;;;;;;5131531;27;20219;-52
2022/05/02 02:42:36;;;;;;;20.25;16.92;;;15.20;66.70;;;;;;5132535;27;20034;-55
2022/05/02 02:45:02;;;;;;;21.67;17.65;;;15.20;66.80;;;;;;5131595;28;20019;-53
2022/05/02 02:47:29;;;;;;;19.50;17.48;;;15.20;67.00;;;;;;5132062;28;20077;-53
2022/05/02 02:49:54;;;;;;;19.98;17.00;;;15.10;66.90;;;;;;5131110;28;20030;-54
2022/05/02 02:52:20;;;;;;;20.60;16.98;;;15.10;67.10;;;;;;5113165;28;20027;-57
2022/05/02 02:54:46;;;;;;;19.20;17.20;;;15.00;67.50;;;;;;5131752;28;20157;-55
2022/05/02 02:57:11;;;;;;;20.15;18.08;;;15.00;67.80;;;;;;5131102;28;20015;-49
2022/05/02 02:59:37;;;;;;;21.27;19.08;;;14.90;67.90;;;;;;5113444;28;20396;-55
2022/05/02 03:02:06;;;;;;;20.73;18.50;;;14.90;68.00;;;;;;5130632;28;20114;-53
2022/05/02 03:07:17;;;;;;;22.05;19.38;;;14.90;68.20;;;;;;5131171;28;20053;-55
2022/05/02 03:09:42;;;;;;;23.67;19.55;;;14.90;68.20;;;;;;5096131;28;20019;-53
2022/05/02 03:12:09;;;;;;;22.65;19.88;;;14.90;68.40;;;;;;5111953;28;20019;-54
2022/05/02 03:14:35;;;;;;;21.77;19.58;;;14.90;68.40;;;;;;5130556;27;20048;-57
2022/05/02 03:17:01;;;;;;;21.48;19.17;;;14.90;68.40;;;;;;5130340;27;20075;-52
2022/05/02 03:19:27;;;;;;;25.92;20.83;;;14.90;68.40;;;;;;5112912;28;20467;-55
2022/05/02 03:21:53;;;;;;;23.92;20.27;;;14.90;68.40;;;;;;5130588;28;20089;-59
2022/05/02 03:24:19;;;;;;;25.90;21.52;;;14.90;68.40;;;;;;5131262;28;20027;-56
2022/05/02 03:26:44;;;;;;;24.00;21.50;;;14.90;68.30;;;;;;5130569;27;20024;-54
2022/05/02 03:29:10;;;;;;;23.35;20.77;;;14.90;68.20;;;;;;5128751;27;20252;-54
2022/05/02 03:31:35;;;;;;;25.98;20.63;;;14.90;68.20;;;;;;5131045;27;20555;-55
2022/05/02 03:34:01;;;;;;;23.27;20.10;;;14.90;68.80;;;;;;5112039;28;20539;-54
2022/05/02 03:36:27;;;;;;;26.65;20.25;;;14.90;68.20;;;;;;5130528;27;20479;-51
2022/05/02 03:38:52;;;;;;;21.48;19.20;;;14.90;68.40;;;;;;5112702;28;20051;-59
2022/05/02 03:41:18;;;;;;;23.77;20.15;;;14.90;68.40;;;;;;5130944;27;20019;-55
2022/05/02 03:43:44;;;;;;;21.63;18.05;;;14.90;68.30;;;;;;5090856;28;1156190;-54
2022/05/02 03:46:10;;;;;;;21.48;19.17;;;15.00;68.20;;;;;;5130891;28;20383;-54
2022/05/02 03:48:35;;;;;;;21.60;18.17;;;15.00;68.00;;;;;;5131953;28;20016;-56
2022/05/02 03:51:02;;;;;;;23.38;18.60;;;15.00;67.90;;;;;;5112895;28;20146;-54
2022/05/02 03:53:28;;;;;;;19.15;16.90;;;15.00;67.70;;;;;;5131811;27;20107;-54
2022/05/02 03:55:54;;;;;;;20.33;18.23;;;15.00;67.50;;;;;;5130590;28;20383;-59
2022/05/02 03:58:20;;;;;;;23.38;18.23;;;15.10;67.40;;;;;;5130848;28;20480;-50
2022/05/02 04:00:46;;;;;;;20.90;17.35;;;15.10;67.30;;;;;;5113227;28;20023;-53
2022/05/02 04:03:11;;;;;;;20.27;15.60;;;15.10;67.10;;;;;;5131205;28;20141;-55
2022/05/02 04:05:37;;;;;;;20.75;17.05;;;15.20;66.90;;;;;;5131459;27;20047;-49
2022/05/02 04:08:03;;;;;;;19.95;17.85;;;15.20;66.60;;;;;;5130864;28;20024;-51
2022/05/02 04:10:29;;;;;;;18.80;16.45;;;15.20;66.50;;;;;;5113212;28;20458;-53
2022/05/02 04:12:54;;;;;;;18.98;16.88;;;15.30;66.50;;;;;;5130686;28;20387;-60
2022/05/02 04:15:20;;;;;;;23.17;16.90;;;15.30;66.50;;;;;;5131244;28;20092;-57
2022/05/02 04:17:46;;;;;;;18.90;16.15;;;15.30;66.40;;;;;;5111737;28;20027;-56
2022/05/02 04:20:11;;;;;;;19.17;16.60;;;15.30;66.30;;;;;;5112635;28;20023;-56
2022/05/02 04:22:38;;;;;;;20.85;15.65;;;15.40;66.20;;;;;;5132103;27;20538;-56
2022/05/02 04:25:05;;;;;;;17.50;15.60;;;15.40;66.10;;;;;;5130502;27;20015;-52
2022/05/02 04:27:31;;;;;;;17.48;14.93;;;15.40;66.10;;;;;;5131726;28;20027;-53
2022/05/02 04:29:56;;;;;;;20.27;17.25;;;15.40;66.00;;;;;;5112744;28;20046;-59
2022/05/02 04:32:22;;;;;;;18.30;16.30;;;15.40;66.10;;;;;;5130938;27;20063;-53
2022/05/02 04:34:48;;;;;;;17.25;14.90;;;15.40;66.10;;;;;;5130761;28;20026;-57
2022/05/02 04:37:14;;;;;;;20.75;16.15;;;15.50;66.00;;;;;;5111954;28;20233;-55
2022/05/02 04:39:39;;;;;;;18.17;15.15;;;15.50;65.90;;;;;;5131163;28;20027;-58
2022/05/02 04:42:06;;;;;;;20.08;15.80;;;15.60;65.70;;;;;;5113696;27;20043;-56
2022/05/02 04:44:32;;;;;;;21.95;16.27;;;15.60;65.50;;;;;;5134687;27;20039;-54
2022/05/02 04:46:58;;;;;;;24.85;17.42;;;15.50;65.50;;;;;;5134011;27;20098;-57
2022/05/02 04:49:24;;;;;;;22.13;17.27;;;15.50;65.90;;;;;;5134657;27;20141;-56
2022/05/02 04:51:50;;;;;;;20.50;17.42;;;15.50;66.20;;;;;;5134868;27;20035;-56
2022/05/02 04:54:15;;;;;;;21.60;17.58;;;15.50;66.30;;;;;;5134154;27;20015;-51
2022/05/02 04:56:41;;;;;;;26.20;17.58;;;15.50;66.40;;;;;;5134448;27;20572;-54
2022/05/02 04:59:06;;;;;;;22.08;17.40;;;15.50;66.40;;;;;;5114263;27;20023;-58
2022/05/02 05:01:32;;;;;;;19.05;17.05;;;15.50;66.60;;;;;;5115570;27;20114;-54
2022/05/02 05:03:58;;;;;;;20.88;17.27;;;15.40;66.70;;;;;;5115183;27;20023;-58
2022/05/02 05:06:24;;;;;;;21.40;17.27;;;15.40;66.90;;;;;;5134451;27;20056;-61
2022/05/02 05:08:50;;;;;;;21.65;17.52;;;15.40;67.10;;;;;;5115562;27;20084;-54
2022/05/02 05:11:32;;;;;;;18.42;16.50;;;15.30;67.10;;;;;;5115650;27;20614;-53
2022/05/02 05:17:03;;;;;;;19.08;16.27;;;15.40;67.10;;;;;;5134107;27;20031;-58
2022/05/02 05:19:32;;;;;;;19.83;17.08;;;15.40;66.90;;;;;;5134160;27;20428;-53
2022/05/02 05:22:10;;;;;;;22.73;16.08;;;15.50;66.80;;;;;;5133701;27;20095;-57
2022/05/02 05:25:09;;;;;;;17.98;15.85;;;15.50;66.80;;;;;;5114292;27;20026;-52
2022/05/02 05:27:44;;;;;;;20.17;16.40;;;15.50;67.00;;;;;;5133328;27;20023;-55
2022/05/02 05:30:11;;;;;;;17.63;15.65;;;15.50;67.00;;;;;;5114556;27;20027;-58
2022/05/02 05:32:45;;;;;;;17.95;15.85;;;15.50;66.90;;;;;;5133737;27;20524;-55
2022/05/02 05:35:15;;;;;;;16.90;15.02;;;15.60;66.90;;;;;;5133023;27;20030;-56
2022/05/02 05:37:55;;;;;;;20.88;15.18;;;15.70;66.50;;;;;;5133631;27;20030;-51
2022/05/02 05:40:27;;;;;;;17.30;14.35;;;15.80;66.10;;;;;;5132893;27;20080;-55
2022/05/02 05:43:30;;;;;;;16.95;15.00;;;15.90;65.90;;;;;;5133965;27;20043;-57
2022/05/02 05:46:11;;;;;;;17.92;14.15;;;16.00;65.60;;;;;;5134103;27;20023;-62
2022/05/02 05:49:15;;;;;;;17.25;14.20;;;16.20;65.10;;;;;;5114284;27;20027;-53
2022/05/02 05:52:03;;;;;;;15.88;14.10;;;16.20;64.60;;;;;;5132977;27;20031;-48
2022/05/02 05:54:41;;;;;;;15.77;14.05;;;16.40;64.20;;;;;;5132522;27;20080;-54
2022/05/02 05:57:14;;;;;;;15.75;13.52;;;16.40;63.60;;;;;;5114571;27;20055;-54
2022/05/02 06:00:09;;;;;;;15.45;13.82;;;16.50;63.50;;;;;;5115284;27;20027;-53
2022/05/02 06:02:56;;;;;;;25.20;14.45;;;16.70;63.10;;;;;;5130329;27;20115;-56
2022/05/02 06:05:23;;;;;;;19.23;12.93;;;16.80;62.80;;;;;;5132986;27;20026;-57
2022/05/02 06:07:51;;;;;;;16.88;13.15;;;17.00;62.10;;;;;;5133912;27;20027;-55
2022/05/02 06:10:17;;;;;;;14.93;13.18;;;17.10;61.30;;;;;;5133006;27;20098;-55
2022/05/02 06:12:45;;;;;;;16.50;12.98;;;17.30;60.90;;;;;;5133693;27;20053;-52
2022/05/02 06:20:44;;;;;;;43.13;35.53;;;17.70;59.20;;;;;;5131601;27;20591;-54
2022/05/02 06:23:14;;;;;;;21.92;14.00;;;17.90;58.90;;;;;;5113813;27;20039;-54
2022/05/02 06:25:41;;;;;;;26.67;15.15;;;18.10;58.10;;;;;;5115111;27;20057;-57
2022/05/02 06:28:08;;;;;;;22.65;14.85;;;18.30;57.20;;;;;;5114366;27;20123;-51
2022/05/02 06:30:39;;;;;;;21.95;15.75;;;18.40;57.00;;;;;;5114069;27;20373;-53
2022/05/02 06:33:12;;;;;;;21.40;15.77;;;18.50;56.10;;;;;;5127831;27;20471;-53
2022/05/02 06:35:53;;;;;;;17.52;13.15;;;18.60;56.00;;;;;;5111702;27;20559;-59
2022/05/02 06:38:43;;;;;;;24.85;15.38;;;18.80;54.90;;;;;;5128622;27;20472;-56
2022/05/02 06:41:31;;;;;;;24.35;15.63;;;18.90;53.30;;;;;;5115077;27;20042;-56
2022/05/02 06:44:44;;;;;;;18.38;14.52;;;19.00;53.00;;;;;;5129928;27;20346;-57
2022/05/02 06:47:36;;;;;;;21.90;14.50;;;19.20;52.70;;;;;;5103023;27;20424;-54
2022/05/02 06:50:05;;;;;;;20.13;14.65;;;19.40;52.00;;;;;;5129657;27;20022;-61
2022/05/02 06:52:45;;;;;;;25.20;15.90;;;19.60;51.80;;;;;;5130328;27;20480;-57
2022/05/02 06:55:35;;;;;;;30.95;16.63;;;19.80;50.80;;;;;;5129868;27;20025;-59
2022/05/02 06:58:39;;;;;;;19.38;17.30;;;20.00;50.30;;;;;;5125702;27;20105;-61
2022/05/02 07:01:23;;;;;;;27.90;16.55;;;20.20;49.40;;;;;;5123013;27;20108;-60
2022/05/02 07:04:02;;;;;;;23.80;15.68;;;20.30;49.50;;;;;;5110329;27;20078;-55
2022/05/02 07:06:27;;;;;;;19.55;14.65;;;20.70;48.30;;;;;;5131254;27;20068;-57
2022/05/02 07:08:57;;;;;;;26.48;14.77;;;22.00;48.80;;;;;;5129185;27;20090;-60
2022/05/02 07:11:29;;;;;;;35.45;13.43;;;24.80;44.10;;;;;;5128953;27;20627;-57
2022/05/02 07:14:16;;;;;;;31.25;13.20;;;27.30;40.00;;;;;;5129420;27;20072;-59
2022/05/02 07:16:49;;;;;;;16.77;11.93;;;29.60;35.90;;;;;;5111356;27;20450;-57
2022/05/02 07:19:38;;;;;;;21.58;12.77;;;31.50;33.60;;;;;;5112713;27;20351;-61
2022/05/02 07:22:16;;;;;;;17.80;12.18;;;32.90;30.90;;;;;;5112867;27;20118;-61
2022/05/02 07:25:01;;;;;;;18.15;11.50;;;34.20;29.70;;;;;;5111270;28;20019;-57
2022/05/02 07:27:43;;;;;;;16.35;11.13;;;35.40;28.30;;;;;;5129189;27;20064;-58
2022/05/02 07:30:10;;;;;;;11.65;9.32;;;36.30;27.70;;;;;;5128542;28;20027;-59
2022/05/02 07:32:36;;;;;;;15.98;11.00;;;37.10;26.90;;;;;;5094030;28;20388;-58
2022/05/02 07:35:02;;;;;;;12.73;9.68;;;38.00;25.90;;;;;;5131084;28;20026;-63
2022/05/02 07:37:31;;;;;;;16.45;9.95;;;38.40;25.60;;;;;;5109555;28;20019;-60
2022/05/02 07:39:58;;;;;;;20.35;10.38;;;39.00;25.30;;;;;;5128130;28;20102;-59
2022/05/02 07:42:25;;;;;;;18.42;10.43;;;39.60;25.10;;;;;;5128734;27;20110;-59
2022/05/02 07:44:54;;;;;;;21.00;9.80;;;40.10;24.70;;;;;;5111679;28;20019;-60
2022/05/02 07:47:22;;;;;;;11.93;9.07;;;40.90;24.40;;;;;;5130487;28;20015;-61
2022/05/02 07:49:48;;;;;;;13.38;8.68;;;41.20;23.90;;;;;;5111422;28;20106;-57
2022/05/02 07:52:36;;;;;;;9.70;8.52;;;41.20;23.60;;;;;;5129812;28;20028;-59
2022/05/02 07:55:03;;;;;;;18.95;9.27;;;41.30;23.00;;;;;;5130758;28;20058;-62
2022/05/02 08:00:18;;;;;;;15.30;8.35;;;41.30;22.90;;;;;;5130804;28;20128;-61
2022/05/02 08:02:44;;;;;;;13.40;8.32;;;41.00;23.10;;;;;;5129689;28;20033;-57
2022/05/02 08:05:10;;;;;;;9.80;7.63;;;41.40;22.70;;;;;;5130747;28;20023;-60
2022/05/02 08:07:43;;;;;;;9.30;7.30;;;42.40;22.30;;;;;;5111862;28;20409;-60
2022/05/02 08:10:43;;;;;;;13.55;8.10;;;43.50;21.80;;;;;;5111208;28;20038;-60
2022/05/02 08:13:36;;;;;;;9.45;7.15;;;44.20;21.60;;;;;;5131284;28;20523;-60
2022/05/02 08:16:05;;;;;;;8.70;7.57;;;44.30;21.20;;;;;;5131660;27;20455;-58
2022/05/02 08:18:40;;;;;;;8.65;6.75;;;44.10;21.20;;;;;;5135054;27;20035;-60
2022/05/02 08:21:15;;;;;;;8.20;6.90;;;43.80;21.10;;;;;;5134925;27;20055;-62
2022/05/02 08:27:27;;;;;;;8.45;7.60;;;42.70;21.00;;;;;;5134795;27;20031;-61
2022/05/02 08:30:11;;;;;;;13.98;7.95;;;42.60;21.40;;;;;;5135115;27;20095;-61
2022/05/02 08:32:56;;;;;;;11.05;7.18;;;43.00;21.30;;;;;;5134337;27;20533;-58
2022/05/02 08:35:56;;;;;;;12.15;7.57;;;43.30;21.40;;;;;;5134287;27;20365;-60
2022/05/02 08:38:40;;;;;;;12.18;7.30;;;43.50;21.10;;;;;;5133861;27;20091;-61
2022/05/02 08:41:21;;;;;;;11.90;7.20;;;43.70;21.00;;;;;;5116132;27;20023;-63
2022/05/02 08:44:01;;;;;;;8.70;6.50;;;43.70;20.90;;;;;;5134872;27;20402;-60
2022/05/02 08:47:03;;;;;;;10.43;7.60;;;42.90;20.90;;;;;;5133769;27;20219;-55
2022/05/02 08:49:54;;;;;;;10.57;7.30;;;42.10;21.00;;;;;;5115525;27;20027;-58
2022/05/02 08:52:22;;;;;;;9.60;6.93;;;41.40;21.00;;;;;;5115283;27;20035;-59
2022/05/02 08:55:06;;;;;;;11.25;7.03;;;40.50;21.90;;;;;;5134328;27;20030;-57
2022/05/02 08:57:41;;;;;;;13.15;6.97;;;40.10;21.70;;;;;;5115514;27;20114;-57
2022/05/02 09:00:12;;;;;;;9.75;6.55;;;39.80;21.80;;;;;;5134372;27;20026;-62
2022/05/02 09:03:15;;;;;;;8.45;6.47;;;39.20;21.80;;;;;;5134060;27;20023;-59
2022/05/02 09:06:18;;;;;;;7.65;5.60;;;38.30;21.90;;;;;;5134312;27;20448;-61
2022/05/02 09:09:08;;;;;;;10.43;6.20;;;36.60;22.70;;;;;;5115838;27;20030;-57
2022/05/02 09:11:39;;;;;;;14.73;7.38;;;34.80;23.60;;;;;;5133673;27;20031;-56
2022/05/02 09:14:34;;;;;;;8.38;6.80;;;33.50;24.50;;;;;;5133626;27;20434;-58
2022/05/02 09:17:18;;;;;;;8.13;6.60;;;32.30;25.20;;;;;;5133476;27;20023;-57
2022/05/02 09:19:49;;;;;;;;;;;31.20;25.90;;;;;;5132875;27;20087;-62
2022/05/02 09:22:36;;;;;;;12.00;8.65;;;30.30;26.70;;;;;;5132996;27;19903;-60
2022/05/02 09:25:08;;;;;;;15.75;8.77;;;29.30;27.40;;;;;;5133165;27;20052;-60
2022/05/02 09:27:53;;;;;;;17.75;8.02;;;28.60;28.00;;;;;;5132892;27;20019;-61
2022/05/02 09:30:43;;;;;;;14.27;7.57;;;28.10;28.60;;;;;;5113794;27;20175;-56
2022/05/02 09:33:29;;;;;;;9.63;7.30;;;27.30;29.00;;;;;;5132628;27;20171;-63
2022/05/02 09:36:04;;;;;;;12.68;8.55;;;26.90;29.40;;;;;;5081003;27;20031;-59
2022/05/02 09:38:46;;;;;;;9.82;7.22;;;26.50;30.00;;;;;;5114204;27;20206;-57
2022/05/02 09:41:33;;;;;;;12.13;7.15;;;26.40;30.40;;;;;;5114650;27;20031;-65
2022/05/02 09:50:25;;;;;;;10.25;7.47;;;25.90;31.30;;;;;;5132356;27;20515;-64
2022/05/02 09:52:57;;;;;;;9.88;7.82;;;25.80;31.80;;;;;;5132832;27;20024;-57
2022/05/02 09:58:34;;;;;;;12.15;6.75;;;25.40;32.50;;;;;;5132351;27;20524;-62
2022/05/02 10:01:13;;;;;;;10.05;7.07;;;25.30;32.30;;;;;;5132450;27;20394;-61
2022/05/02 10:04:02;;;;;;;14.85;7.97;;;25.20;32.70;;;;;;5113589;27;20054;-56
2022/05/02 10:06:46;;;;;;;11.82;7.65;;;25.20;33.50;;;;;;5113740;27;20025;-57
2022/05/02 10:09:12;;;;;;;9.75;7.47;;;25.30;33.50;;;;;;5132341;27;20019;-62
2022/05/02 10:11:48;;;;;;;11.43;8.18;;;25.40;32.90;;;;;;5113594;27;20464;-57
2022/05/02 10:14:29;;;;;;;9.07;7.70;;;25.30;33.00;;;;;;5113529;27;20030;-63
2022/05/02 10:17:02;;;;;;;8.52;6.65;;;25.30;32.90;;;;;;5114000;27;20486;-54
2022/05/02 10:19:48;;;;;;;20.77;7.50;;;25.30;32.60;;;;;;5131667;27;20094;-57
2022/05/02 10:22:32;;;;;;;11.43;6.45;;;25.10;32.30;;;;;;5113143;27;20119;-60
2022/05/02 10:24:57;;;;;;;8.50;5.22;;;25.20;32.20;;;;;;5131904;27;20098;-57
2022/05/02 10:27:35;;;;;;;8.80;5.45;;;25.10;30.70;;;;;;5131117;27;20073;-57
2022/05/02 10:30:12;;;;;;;14.07;7.90;;;25.10;31.30;;;;;;5113139;27;20491;-57
2022/05/02 10:32:45;;;;;;;9.80;6.18;;;25.00;32.50;;;;;;5131192;27;20369;-57
2022/05/02 10:35:15;;;;;;;14.75;7.72;;;25.00;32.10;;;;;;5131837;27;20021;-57
2022/05/02 10:37:46;;;;;;;11.10;6.90;;;25.20;32.20;;;;;;5131835;27;20432;-55
2022/05/02 10:40:13;;;;;;;8.05;5.68;;;25.00;32.40;;;;;;5131389;27;20019;-58
2022/05/02 10:42:48;;;;;;;12.80;6.32;;;25.00;32.70;;;;;;5112690;27;20487;-56
2022/05/02 10:45:15;;;;;;;17.88;7.10;;;25.00;32.50;;;;;;5130951;27;20027;-60
2022/05/02 10:47:44;;;;;;;8.52;5.75;;;25.00;33.30;;;;;;5131250;27;20072;-60
2022/05/02 10:50:20;;;;;;;23.88;11.73;;;25.00;32.40;;;;;;5130975;27;20027;-57
2022/05/02 10:53:07;;;;;;;16.05;8.63;;;25.10;32.20;;;;;;5131546;27;20019;-58
2022/05/02 10:55:37;;;;;;;8.80;5.28;;;25.30;32.20;;;;;;5010826;28;20138;-55
2022/05/02 10:58:05;;;;;;;6.32;5.03;;;25.40;31.90;;;;;;5027789;28;20042;-55
2022/05/02 11:00:32;;;;;;;7.35;5.28;;;25.50;31.10;;;;;;5026494;28;20041;-57
2022/05/02 11:03:28;;;;;;;9.38;6.15;;;25.20;31.70;;;;;;5011211;28;20547;-53
2022/05/02 11:06:35;;;;;;;8.43;4.47;;;25.20;32.10;;;;;;4994714;28;20121;-58
2022/05/02 11:09:03;;;;;;;9.85;5.28;;;25.30;31.00;;;;;;5008332;28;20135;-57
2022/05/02 11:11:46;;;;;;;6.75;4.80;;;25.30;30.80;;;;;;5010462;28;20025;-57
2022/05/02 11:14:27;;;;;;;7.32;5.20;;;25.30;30.90;;;;;;5027493;28;20033;-57
2022/05/02 11:17:13;;;;;;;8.27;5.32;;;25.30;31.30;;;;;;5010769;28;20501;-58
2022/05/02 11:22:39;;;;;;;9.85;5.55;;;25.50;31.40;;;;;;5027346;28;20028;-59
2022/05/02 11:25:17;;;;;;;5.85;4.65;;;25.70;31.40;;;;;;5011449;28;20112;-56
2022/05/02 11:27:54;;;;;;;9.20;5.50;;;25.60;31.70;;;;;;5027632;28;20037;-56
2022/05/02 11:30:27;;;;;;;10.48;5.00;;;25.60;31.40;;;;;;5010686;28;20129;-60
2022/05/02 11:33:16;;;;;;;10.23;4.60;;;25.50;31.80;;;;;;5089759;28;20027;-56
2022/05/02 11:35:47;;;;;;;8.68;4.50;;;25.50;31.50;;;;;;5112206;28;20019;-58
2022/05/02 11:38:36;;;;;;;5.68;3.65;;;25.40;30.90;;;;;;5113172;28;20023;-59
2022/05/02 11:41:11;;;;;;;5.60;3.90;;;25.40;30.40;;;;;;5131631;28;20472;-54
2022/05/02 11:43:37;;;;;;;5.32;3.83;;;25.30;30.80;;;;;;5093670;28;20063;-54
2022/05/02 11:46:22;;;;;;;11.27;4.68;;;25.30;30.00;;;;;;5089502;28;20024;-55
2022/05/02 11:49:13;;;;;;;4.80;3.90;;;25.10;31.20;;;;;;5088814;28;20040;-58
2022/05/02 11:51:46;;;;;;;8.30;3.80;;;25.10;31.10;;;;;;5089670;28;20507;-57
2022/05/02 11:54:33;;;;;;;9.05;4.63;;;25.20;30.80;;;;;;5092760;28;20024;-56
2022/05/02 11:57:25;;;;;;;6.50;4.28;;;25.50;30.90;;;;;;5094015;28;20105;-57
2022/05/02 12:00:09;;;;;;;7.25;3.60;;;25.70;31.20;;;;;;5094080;28;20024;-54
2022/05/02 12:02:41;;;;;;;10.48;3.85;;;25.60;29.50;;;;;;5091404;28;20153;-56
2022/05/02 12:05:31;;;;;;;8.00;4.40;;;25.40;30.50;;;;;;5092332;28;20029;-57
2022/05/02 12:07:58;;;;;;;6.65;4.18;;;25.30;31.10;;;;;;5093697;28;20488;-57
2022/05/02 12:10:37;;;;;;;10.60;5.07;;;25.40;31.00;;;;;;5093148;28;20028;-57
2022/05/02 12:13:05;;;;;;;8.30;4.30;;;25.50;31.30;;;;;;5091910;28;20088;-56
2022/05/02 12:15:32;;;;;;;6.55;4.30;;;25.50;30.60;;;;;;5092341;28;20090;-55
2022/05/02 12:18:01;;;;;;;6.50;4.05;;;25.50;30.40;;;;;;5074524;28;20016;-57
2022/05/02 12:20:26;;;;;;;8.55;4.93;;;25.70;30.40;;;;;;5090742;28;20024;-58
2022/05/02 12:23:03;;;;;;;8.00;4.95;;;26.00;30.40;;;;;;5091357;28;20031;-62
2022/05/02 12:25:29;;;;;;;8.30;5.63;;;26.00;31.10;;;;;;5091082;28;20027;-57
2022/05/02 12:27:58;;;;;;;8.80;5.10;;;26.10;31.20;;;;;;5093560;28;20035;-57
2022/05/02 12:30:28;;;;;;;9.05;5.75;;;26.00;30.70;;;;;;5092819;28;20056;-61
2022/05/02 12:32:59;;;;;;;13.45;7.78;;;25.70;31.20;;;;;;5093082;28;20073;-57
2022/05/02 12:35:33;;;;;;;7.30;5.25;;;25.60;31.50;;;;;;5091811;28;20053;-60
2022/05/02 12:38:09;;;;;;;7.38;4.63;;;25.50;31.90;;;;;;5091471;28;20065;-56
2022/05/02 12:40:37;;;;;;;9.00;6.40;;;25.70;31.50;;;;;;5092949;28;20063;-57
2022/05/02 12:43:15;;;;;;;7.47;4.10;;;25.80;31.30;;;;;;5112209;27;20487;-57
2022/05/02 12:45:46;;;;;;;5.78;4.25;;;25.70;30.90;;;;;;5132601;27;20030;-57
2022/05/02 12:48:29;;;;;;;5.75;4.20;;;25.60;30.70;;;;;;5133417;27;20092;-56
2022/05/02 12:50:58;;;;;;;10.65;5.22;;;25.60;30.60;;;;;;5133721;27;20419;-52
2022/05/02 12:56:12;;;;;;;9.02;5.20;;;25.40;30.70;;;;;;5134197;27;20079;-53
2022/05/02 13:01:24;;;;;;;11.48;5.43;;;25.40;30.40;;;;;;5133281;27;20084;-54
2022/05/02 13:03:55;;;;;;;9.65;4.55;;;25.50;30.50;;;;;;5132769;27;20059;-60
2022/05/02 13:06:21;;;;;;;9.32;4.95;;;25.50;30.50;;;;;;5133133;27;20021;-56
2022/05/02 13:08:47;;;;;;;18.50;7.13;;;25.40;30.60;;;;;;5132280;27;20142;-58
2022/05/02 13:11:33;;;;;;;8.52;4.30;;;25.40;30.90;;;;;;5114578;27;20110;-56
2022/05/02 13:14:00;;;;;;;4.80;4.07;;;25.40;31.00;;;;;;5133606;27;20453;-59
2022/05/02 13:16:28;;;;;;;8.23;4.80;;;25.40;31.10;;;;;;5133072;27;20027;-60
2022/05/02 13:18:55;;;;;;;9.43;4.75;;;25.30;31.60;;;;;;5114735;27;20031;-57
2022/05/02 13:21:21;;;;;;;8.60;4.10;;;25.20;31.10;;;;;;5114832;27;20400;-59
2022/05/02 13:24:05;;;;;;;6.32;3.90;;;25.00;31.30;;;;;;5132676;27;20019;-57
2022/05/02 13:27:02;;;;;;;7.75;4.78;;;25.00;31.30;;;;;;5131550;27;20067;-57
2022/05/02 13:29:46;;;;;;;6.25;3.78;;;24.90;31.50;;;;;;5088491;27;20440;-60
2022/05/02 13:32:23;;;;;;;8.68;4.18;;;24.80;31.90;;;;;;5113325;27;20391;-53
2022/05/02 13:35:01;;;;;;;5.65;4.00;;;24.80;32.00;;;;;;5112995;27;20639;-56
2022/05/02 13:37:43;;;;;;;6.82;3.67;;;24.80;31.80;;;;;;5132511;27;20087;-61
2022/05/02 13:40:18;;;;;;;8.10;3.67;;;24.60;32.00;;;;;;5113111;27;20119;-58
2022/05/02 13:43:01;;;;;;;5.95;3.72;;;24.60;32.20;;;;;;5131293;27;20043;-53